Glen Dean, Kentucky
Current Conditions -  °F | °C
As of 1:56 AM on Saturday 25 Oct 2014 (Local Time) from KOWB Reporting Station
Haze Haze  
Wind Chill: 51°   Ceiling: Unl
Heat Index: 51°   Visibility: 6mi
Dew Point: 50°   Wind: 3mph
Humidity: 97%   Direction: 160°SSE
Pressure: 30.06"   Gusts: NA
Location:  37.6217°N, 86.5365°W
Report Text: KOWB 250656Z AUTO 16003KT 6SM BR FEW049 11/10 A3006 RMK AO2 TSNO T01050100 SLP178
Loading
Personal Weather Stations






























Interactive Weather Map
Tropical Storm Tracking
New forecast layout! Learn more

10-Day Weather Forecast

Advertisements
Track Severe Weather on mobile